EUR weather

Eurong Heliport
Eurong Ranger's Station, Queensland, Australia

Public forecast

Using degrees Celsius for public forecast. Weather courtesy of forecast.io.

METAR (pilot weather report)

Closest report is Bundaberg Airport, 56.9 nm (105.4 km) NW. Retrieved 2019/02/21 01:00 UTC (13 minutes ago):

YBUD 210100Z AUTO 15012KT 9999 // SCT045 34/19 Q1005

TAF (pilot weather forecast)

Forecast is more than 12 hours old.

Closest forecast is Brisbane International Airport, 112.8 nm (209.0 km) S. Retrieved 2019/02/20 00:00 UTC (1 day ago):

TAF YBBN 202315Z 2100/2206 15015KT 9999 -SHRA SCT025 SCT035 FM210100 14018G28KT 9999 SCT035 FM211000 18015KT 9999 -SHRA FEW015 BKN025 FM212100 16022G32KT 9999 -SHRA FEW015 BKN030 FM220000 17025G35KT 9999 SCT030 INTER 2112/2124 16020G38KT 4000 SHRA BKN012